sensor_id;sensor_type;location;lat;lon;timestamp;pressure;altitude;pressure_sealevel;temperature;humidity
74218;BME280;62579;47.288;18.646;2023-05-20T16:00:50;99964.81;;;25.98;45.69
74218;BME280;62579;47.288;18.646;2023-05-20T16:03:16;99964.81;;;25.98;45.69
74218;BME280;62579;47.288;18.646;2023-05-20T16:05:41;99960.81;;;25.26;46.00
74218;BME280;62579;47.288;18.646;2023-05-20T16:08:07;99960.53;;;25.22;44.96
74218;BME280;62579;47.288;18.646;2023-05-20T16:10:32;99959.53;;;25.39;46.01
74218;BME280;62579;47.288;18.646;2023-05-20T16:13:02;99963.13;;;25.30;44.82
74218;BME280;62579;47.288;18.646;2023-05-20T16:15:27;99950.19;;;25.34;46.07
74218;BME280;62579;47.288;18.646;2023-05-20T16:17:55;99953.50;;;25.42;45.65
74218;BME280;62579;47.288;18.646;2023-05-20T16:20:21;99945.97;;;25.33;46.40
74218;BME280;62579;47.288;18.646;2023-05-20T16:22:46;99950.38;;;25.05;46.72
74218;BME280;62579;47.288;18.646;2023-05-20T16:25:11;99942.03;;;25.27;47.60
74218;BME280;62579;47.288;18.646;2023-05-20T16:27:38;99950.31;;;25.15;47.13
74218;BME280;62579;47.288;18.646;2023-05-20T16:30:06;99950.38;;;25.05;48.68
74218;BME280;62579;47.288;18.646;2023-05-20T16:32:31;99949.44;;;25.13;49.37
74218;BME280;62579;47.288;18.646;2023-05-20T16:34:56;99948.03;;;25.02;48.47
74218;BME280;62579;47.288;18.646;2023-05-20T16:37:22;99955.31;;;25.17;49.38
74218;BME280;62579;47.288;18.646;2023-05-20T16:39:47;99959.25;;;24.92;48.53
74218;BME280;62579;47.288;18.646;2023-05-20T16:42:12;99945.88;;;25.00;49.49
74218;BME280;62579;47.288;18.646;2023-05-20T16:44:38;99945.69;;;25.08;50.19
74218;BME280;62579;47.288;18.646;2023-05-20T16:47:07;99953.53;;;24.90;51.19
74218;BME280;62579;47.288;18.646;2023-05-20T16:49:33;99957.31;;;24.55;52.68
74218;BME280;62579;47.288;18.646;2023-05-20T16:51:58;99959.81;;;24.60;52.53
74218;BME280;62579;47.288;18.646;2023-05-20T16:54:24;99954.56;;;24.45;54.05
74218;BME280;62579;47.288;18.646;2023-05-20T16:56:50;99957.81;;;24.32;54.18
74218;BME280;62579;47.288;18.646;2023-05-20T16:59:15;99957.16;;;24.12;55.67
74218;BME280;62579;47.288;18.646;2023-05-20T17:01:44;99964.28;;;24.06;55.35
74218;BME280;62579;47.288;18.646;2023-05-20T17:17:16;99968.41;;;23.76;57.26
74218;BME280;62579;47.288;18.646;2023-05-20T17:19:43;99969.72;;;23.65;57.11
74218;BME280;62579;47.288;18.646;2023-05-20T17:22:08;99971.19;;;23.66;58.34
74218;BME280;62579;47.288;18.646;2023-05-20T17:24:34;99979.38;;;23.55;58.62
74218;BME280;62579;47.288;18.646;2023-05-20T17:27:00;99978.06;;;23.56;58.65
74218;BME280;62579;47.288;18.646;2023-05-20T17:29:25;99976.75;;;23.47;58.60
74218;BME280;62579;47.288;18.646;2023-05-20T17:31:50;99972.03;;;23.40;58.59
74218;BME280;62579;47.288;18.646;2023-05-20T17:34:16;99977.38;;;23.19;59.33
74218;BME280;62579;47.288;18.646;2023-05-20T17:36:41;99973.75;;;23.26;58.74
74218;BME280;62579;47.288;18.646;2023-05-20T17:39:06;99986.69;;;23.04;59.20
74218;BME280;62579;47.288;18.646;2023-05-20T17:41:33;99983.47;;;22.98;59.14
74218;BME280;62579;47.288;18.646;2023-05-20T17:43:59;99979.34;;;22.90;59.33
74218;BME280;62579;47.288;18.646;2023-05-20T17:46:25;99979.31;;;22.80;59.33
74218;BME280;62579;47.288;18.646;2023-05-20T17:48:51;99989.88;;;22.64;59.29
74218;BME280;62579;47.288;18.646;2023-05-20T17:51:17;99982.28;;;22.65;60.44
74218;BME280;62579;47.288;18.646;2023-05-20T17:53:42;99987.94;;;22.57;59.75
74218;BME280;62579;47.288;18.646;2023-05-20T17:56:07;99979.69;;;22.67;59.69
74218;BME280;62579;47.288;18.646;2023-05-20T17:58:33;99982.75;;;22.44;60.07
74218;BME280;62579;47.288;18.646;2023-05-20T18:00:58;99982.22;;;22.29;60.85
74218;BME280;62579;47.288;18.646;2023-05-20T18:03:24;99987.44;;;22.25;61.23
74218;BME280;62579;47.288;18.646;2023-05-20T18:05:49;99991.78;;;22.18;61.88
74218;BME280;62579;47.288;18.646;2023-05-20T18:08:14;99991.69;;;22.26;61.90
74218;BME280;62579;47.288;18.646;2023-05-20T18:10:40;99990.41;;;22.09;62.21
74218;BME280;62579;47.288;18.646;2023-05-20T18:13:05;99995.47;;;22.03;62.00
74218;BME280;62579;47.288;18.646;2023-05-20T18:15:31;99999.06;;;21.96;62.04
74218;BME280;62579;47.288;18.646;2023-05-20T18:17:56;99995.41;;;21.94;61.92
74218;BME280;62579;47.288;18.646;2023-05-20T18:20:21;99994.34;;;21.89;61.70
74218;BME280;62579;47.288;18.646;2023-05-20T18:22:47;99998.28;;;21.86;61.36
74218;BME280;62579;47.288;18.646;2023-05-20T18:25:14;99997.50;;;21.69;61.47
74218;BME280;62579;47.288;18.646;2023-05-20T18:27:40;100003.78;;;21.69;60.97
74218;BME280;62579;47.288;18.646;2023-05-20T18:30:09;99994.66;;;21.59;61.22
74218;BME280;62579;47.288;18.646;2023-05-20T18:32:35;99998.06;;;21.50;61.15
74218;BME280;62579;47.288;18.646;2023-05-20T18:35:01;99989.97;;;21.44;60.80
74218;BME280;62579;47.288;18.646;2023-05-20T18:37:27;99995.25;;;21.33;60.84
74218;BME280;62579;47.288;18.646;2023-05-20T18:39:53;99996.41;;;21.47;60.54
74218;BME280;62579;47.288;18.646;2023-05-20T18:42:18;99997.38;;;21.42;59.87
74218;BME280;62579;47.288;18.646;2023-05-20T18:47:39;99997.31;;;21.32;59.87
74218;BME280;62579;47.288;18.646;2023-05-20T18:50:05;100001.09;;;21.20;60.41
74218;BME280;62579;47.288;18.646;2023-05-20T18:52:31;100001.50;;;21.16;60.18
74218;BME280;62579;47.288;18.646;2023-05-20T18:54:56;100004.09;;;21.14;60.34
74218;BME280;62579;47.288;18.646;2023-05-20T18:57:21;100002.72;;;21.23;59.93
74218;BME280;62579;47.288;18.646;2023-05-20T18:59:47;100012.38;;;21.14;59.80
74218;BME280;62579;47.288;18.646;2023-05-20T19:02:12;100006.41;;;21.25;59.18
74218;BME280;62579;47.288;18.646;2023-05-20T19:04:38;100010.13;;;21.20;59.06
74218;BME280;62579;47.288;18.646;2023-05-20T19:07:03;100009.28;;;21.35;59.27
74218;BME280;62579;47.288;18.646;2023-05-20T19:09:28;100015.78;;;21.30;60.47
74218;BME280;62579;47.288;18.646;2023-05-20T19:11:54;100016.72;;;21.25;61.65
74218;BME280;62579;47.288;18.646;2023-05-20T19:14:23;100021.94;;;21.21;62.33
74218;BME280;62579;47.288;18.646;2023-05-20T19:16:48;100021.25;;;21.13;63.23
74218;BME280;62579;47.288;18.646;2023-05-20T19:19:14;100028.78;;;20.87;64.55
74218;BME280;62579;47.288;18.646;2023-05-20T19:21:40;100024.09;;;20.73;64.78
74218;BME280;62579;47.288;18.646;2023-05-20T19:26:47;100021.34;;;20.73;64.76
74218;BME280;62579;47.288;18.646;2023-05-20T19:29:12;100027.56;;;20.49;66.01
74218;BME280;62579;47.288;18.646;2023-05-20T19:31:40;100027.75;;;20.43;66.08
74218;BME280;62579;47.288;18.646;2023-05-20T19:34:07;100024.38;;;20.52;65.74
74218;BME280;62579;47.288;18.646;2023-05-20T19:36:32;100024.25;;;20.43;66.20
74218;BME280;62579;47.288;18.646;2023-05-20T19:38:58;100022.59;;;20.40;66.32
74218;BME280;62579;47.288;18.646;2023-05-20T19:41:24;100024.66;;;20.31;66.47
74218;BME280;62579;47.288;18.646;2023-05-20T19:43:50;100020.25;;;20.21;67.71
74218;BME280;62579;47.288;18.646;2023-05-20T19:46:18;100024.72;;;20.16;67.53
74218;BME280;62579;47.288;18.646;2023-05-20T19:48:43;100021.03;;;20.06;67.64
74218;BME280;62579;47.288;18.646;2023-05-20T19:51:09;100021.28;;;20.01;68.23
74218;BME280;62579;47.288;18.646;2023-05-20T19:53:34;100019.63;;;19.98;67.89
74218;BME280;62579;47.288;18.646;2023-05-20T19:56:02;100018.91;;;19.82;68.35
74218;BME280;62579;47.288;18.646;2023-05-20T19:58:27;100015.22;;;19.79;68.04
74218;BME280;62579;47.288;18.646;2023-05-20T20:00:56;100015.66;;;19.68;68.24
74218;BME280;62579;47.288;18.646;2023-05-20T20:03:21;100018.97;;;19.59;68.55
74218;BME280;62579;47.288;18.646;2023-05-20T20:05:47;100012.34;;;19.62;68.26
74218;BME280;62579;47.288;18.646;2023-05-20T20:08:12;100013.63;;;19.54;68.84
74218;BME280;62579;47.288;18.646;2023-05-20T20:10:38;100013.25;;;19.42;69.02
74218;BME280;62579;47.288;18.646;2023-05-20T20:13:07;100004.22;;;19.34;69.76
74218;BME280;62579;47.288;18.646;2023-05-20T20:15:32;100012.69;;;19.29;70.10
74218;BME280;62579;47.288;18.646;2023-05-20T20:18:00;100012.53;;;19.19;70.15
74218;BME280;62579;47.288;18.646;2023-05-20T20:20:25;100012.88;;;19.15;70.32
74218;BME280;62579;47.288;18.646;2023-05-20T20:22:51;100009.75;;;19.11;70.32
74218;BME280;62579;47.288;18.646;2023-05-20T20:25:17;100020.25;;;19.05;70.34
74218;BME280;62579;47.288;18.646;2023-05-20T20:27:42;100016.91;;;18.92;70.56
74218;BME280;62579;47.288;18.646;2023-05-20T20:30:12;100011.97;;;18.90;70.49
74218;BME280;62579;47.288;18.646;2023-05-20T20:32:39;100011.97;;;18.90;70.55
74218;BME280;62579;47.288;18.646;2023-05-20T20:35:04;100014.31;;;18.79;70.81
74218;BME280;62579;47.288;18.646;2023-05-20T20:37:30;100013.75;;;18.73;71.46
74218;BME280;62579;47.288;18.646;2023-05-20T20:39:55;100015.59;;;18.70;71.88
74218;BME280;62579;47.288;18.646;2023-05-20T20:42:21;100013.00;;;18.65;71.88
74218;BME280;62579;47.288;18.646;2023-05-20T20:44:50;100013.91;;;18.59;71.51
74218;BME280;62579;47.288;18.646;2023-05-20T20:47:16;100015.91;;;18.51;71.87
74218;BME280;62579;47.288;18.646;2023-05-20T20:49:42;100007.41;;;18.42;72.36
74218;BME280;62579;47.288;18.646;2023-05-20T20:52:08;100005.75;;;18.39;72.24
74218;BME280;62579;47.288;18.646;2023-05-20T20:54:34;100005.53;;;18.37;72.29
74218;BME280;62579;47.288;18.646;2023-05-20T20:57:00;100005.16;;;18.33;72.60
74218;BME280;62579;47.288;18.646;2023-05-20T20:59:27;100004.25;;;18.30;72.67
74218;BME280;62579;47.288;18.646;2023-05-20T21:01:53;100002.91;;;18.24;72.85
74218;BME280;62579;47.288;18.646;2023-05-20T21:04:18;99995.94;;;18.15;73.24
74218;BME280;62579;47.288;18.646;2023-05-20T21:06:44;100001.06;;;18.19;72.76
74218;BME280;62579;47.288;18.646;2023-05-20T21:09:13;100002.72;;;18.14;72.61
74218;BME280;62579;47.288;18.646;2023-05-20T21:11:39;100009.50;;;18.13;72.80
74218;BME280;62579;47.288;18.646;2023-05-20T21:14:08;100005.47;;;18.14;72.50
74218;BME280;62579;47.288;18.646;2023-05-20T21:16:33;100003.97;;;18.13;72.92
74218;BME280;62579;47.288;18.646;2023-05-20T21:18:59;99999.34;;;18.00;73.46
74218;BME280;62579;47.288;18.646;2023-05-20T21:21:24;100003.44;;;18.15;71.18
74218;BME280;62579;47.288;18.646;2023-05-20T21:23:49;99992.75;;;18.04;72.41
74218;BME280;62579;47.288;18.646;2023-05-20T21:26:17;99990.94;;;18.14;72.46
74218;BME280;62579;47.288;18.646;2023-05-20T21:28:42;99993.87;;;18.08;72.23
74218;BME280;62579;47.288;18.646;2023-05-20T21:31:07;100004.13;;;18.08;72.15
74218;BME280;62579;47.288;18.646;2023-05-20T21:33:33;100004.28;;;18.02;72.62
74218;BME280;62579;47.288;18.646;2023-05-20T21:35:58;100006.19;;;18.07;73.26
74218;BME280;62579;47.288;18.646;2023-05-20T21:38:24;100009.81;;;18.02;73.16
74218;BME280;62579;47.288;18.646;2023-05-20T21:40:50;99998.69;;;17.79;74.35
74218;BME280;62579;47.288;18.646;2023-05-20T21:43:16;99997.62;;;17.90;73.98
74218;BME280;62579;47.288;18.646;2023-05-20T21:45:41;99990.69;;;17.96;73.52
74218;BME280;62579;47.288;18.646;2023-05-20T21:48:06;99993.03;;;17.85;73.78
74218;BME280;62579;47.288;18.646;2023-05-20T21:50:31;99995.03;;;17.84;74.33
74218;BME280;62579;47.288;18.646;2023-05-20T21:52:57;99988.44;;;17.87;73.70
74218;BME280;62579;47.288;18.646;2023-05-20T21:55:22;99987.53;;;17.85;73.43
74218;BME280;62579;47.288;18.646;2023-05-20T21:57:51;99986.28;;;17.93;73.39
74218;BME280;62579;47.288;18.646;2023-05-20T22:00:17;99988.44;;;17.87;74.19
74218;BME280;62579;47.288;18.646;2023-05-20T22:02:46;99989.53;;;17.84;74.03
74218;BME280;62579;47.288;18.646;2023-05-20T22:05:12;99992.87;;;17.90;73.64
74218;BME280;62579;47.288;18.646;2023-05-20T22:07:38;99995.97;;;17.87;74.24
74218;BME280;62579;47.288;18.646;2023-05-20T22:10:07;99986.22;;;17.86;74.46
74218;BME280;62579;47.288;18.646;2023-05-20T22:12:33;99978.47;;;17.77;74.45
74218;BME280;62579;47.288;18.646;2023-05-20T22:15:00;99979.53;;;17.66;74.94
74218;BME280;62579;47.288;18.646;2023-05-20T22:17:25;99993.06;;;17.64;75.86
74218;BME280;62579;47.288;18.646;2023-05-20T22:19:51;99980.09;;;17.72;75.38
74218;BME280;62579;47.288;18.646;2023-05-20T22:22:18;99992.34;;;17.64;75.40
74218;BME280;62579;47.288;18.646;2023-05-20T22:24:43;99987.97;;;17.68;75.96
74218;BME280;62579;47.288;18.646;2023-05-20T22:27:09;99974.38;;;17.63;76.09
74218;BME280;62579;47.288;18.646;2023-05-20T22:29:34;99989.28;;;17.47;76.47
74218;BME280;62579;47.288;18.646;2023-05-20T22:32:00;99975.38;;;17.52;76.52
74218;BME280;62579;47.288;18.646;2023-05-20T22:34:25;99973.03;;;17.56;76.65
74218;BME280;62579;47.288;18.646;2023-05-20T22:36:50;99973.69;;;17.49;76.73
74218;BME280;62579;47.288;18.646;2023-05-20T22:39:18;99970.28;;;17.56;76.88
74218;BME280;62579;47.288;18.646;2023-05-20T22:41:43;99982.56;;;17.55;77.01
74218;BME280;62579;47.288;18.646;2023-05-20T22:44:09;99977.44;;;17.59;76.48
74218;BME280;62579;47.288;18.646;2023-05-20T22:46:35;99978.75;;;17.58;77.26
74218;BME280;62579;47.288;18.646;2023-05-20T22:49:00;99980.56;;;17.56;77.25
74218;BME280;62579;47.288;18.646;2023-05-20T22:51:25;99986.06;;;17.56;77.17
74218;BME280;62579;47.288;18.646;2023-05-20T22:53:51;99984.44;;;17.60;76.84
74218;BME280;62579;47.288;18.646;2023-05-20T22:56:17;99992.34;;;17.64;76.59
74218;BME280;62579;47.288;18.646;2023-05-20T22:58:43;99997.88;;;17.64;76.82
74218;BME280;62579;47.288;18.646;2023-05-20T23:01:10;99988.91;;;17.71;76.82
74218;BME280;62579;47.288;18.646;2023-05-20T23:03:36;99988.69;;;17.61;76.96
74218;BME280;62579;47.288;18.646;2023-05-20T23:06:02;99996.38;;;17.63;77.26
74218;BME280;62579;47.288;18.646;2023-05-20T23:08:27;99985.78;;;17.67;77.06
74218;BME280;62579;47.288;18.646;2023-05-20T23:10:53;99992.72;;;17.68;76.96
74218;BME280;62579;47.288;18.646;2023-05-20T23:13:18;99991.09;;;17.72;76.82
74218;BME280;62579;47.288;18.646;2023-05-20T23:15:43;99994.37;;;17.63;77.33
74218;BME280;62579;47.288;18.646;2023-05-20T23:18:16;99993.63;;;17.63;77.52
74218;BME280;62579;47.288;18.646;2023-05-20T23:20:41;99986.31;;;17.65;77.39
74218;BME280;62579;47.288;18.646;2023-05-20T23:23:07;99981.88;;;17.62;77.41
74218;BME280;62579;47.288;18.646;2023-05-20T23:25:32;99977.84;;;17.63;77.41
74218;BME280;62579;47.288;18.646;2023-05-20T23:27:58;99991.44;;;17.61;77.84
74218;BME280;62579;47.288;18.646;2023-05-20T23:30:24;99987.75;;;17.59;77.60
74218;BME280;62579;47.288;18.646;2023-05-20T23:32:50;99983.22;;;17.69;77.38
74218;BME280;62579;47.288;18.646;2023-05-20T23:35:17;99977.44;;;17.59;77.57
74218;BME280;62579;47.288;18.646;2023-05-20T23:37:43;99976.94;;;17.61;77.67
74218;BME280;62579;47.288;18.646;2023-05-20T23:40:08;99983.16;;;17.61;77.42
74218;BME280;62579;47.288;18.646;2023-05-20T23:42:40;99978.41;;;17.41;78.40
74218;BME280;62579;47.288;18.646;2023-05-20T23:45:05;99975.72;;;17.49;78.42
74218;BME280;62579;47.288;18.646;2023-05-20T23:47:31;99986.06;;;17.56;77.94
74218;BME280;62579;47.288;18.646;2023-05-20T23:49:57;99977.94;;;17.50;78.29
74218;BME280;62579;47.288;18.646;2023-05-20T23:52:22;99976.88;;;17.53;78.24
74218;BME280;62579;47.288;18.646;2023-05-20T23:54:48;99966.66;;;17.40;78.50
74218;BME280;62579;47.288;18.646;2023-05-20T23:57:14;99972.88;;;17.33;79.32
74218;BME280;62579;47.288;18.646;2023-05-20T23:59:40;99978.03;;;17.37;79.19
